Time;durP1;ratioP1;P1;durP2;ratioP2;P2;SDS_P1;SDS_P2;PMS_P1;PMS_P2;Temp;Humidity;BMP_temperature;BMP_pressure;BME280_temperature;BME280_humidity;BME280_pressure;Samples;Min_cycle;Max_cycle;Signal;HPM_P1;HPM_P2
2022/01/17 00:00:53;;;;;;;;;24.00;19.50;;;;;8.80;69.77;102920.50;4931214;28;45571;-70
2022/01/17 00:03:24;;;;;;;;;19.50;18.00;;;;;9.06;70.65;102960.41;4936380;28;45457;-71
2022/01/17 00:05:52;;;;;;;;;23.00;21.00;;;;;9.14;70.06;102960.13;4936651;28;45526;-72
2022/01/17 00:08:18;;;;;;;;;23.75;20.00;;;;;8.95;69.33;102930.38;4932183;28;45441;-72
2022/01/17 00:10:43;;;;;;;;;28.75;23.75;;;;;8.77;69.85;102901.63;4930910;28;45582;-72
2022/01/17 00:13:13;;;;;;;;;26.50;23.00;;;;;9.00;69.83;102934.25;4908678;28;46124;-71
2022/01/17 00:15:48;;;;;;;;;26.25;22.50;;;;;8.73;69.15;102882.66;4930026;28;46108;-72
2022/01/17 00:20:40;;;;;;;;;30.75;28.75;;;;;9.30;69.07;102978.06;4930722;28;45442;-70
2022/01/17 00:23:06;;;;;;;;;25.50;21.50;;;;;9.19;68.79;102950.69;4927331;28;45658;-70
2022/01/17 00:25:31;;;;;;;;;30.25;21.75;;;;;9.33;68.94;102964.03;4929653;28;45443;-71
2022/01/17 00:27:57;;;;;;;;;44.25;33.75;;;;;9.16;69.56;102928.25;4935802;28;45817;-72
2022/01/17 00:30:22;;;;;;;;;33.75;25.00;;;;;9.31;69.74;102966.59;4935444;28;45850;-72
2022/01/17 00:32:47;;;;;;;;;38.50;27.75;;;;;9.06;69.97;102917.75;4926187;28;45592;-72
2022/01/17 00:35:13;;;;;;;;;26.75;25.00;;;;;9.33;69.93;102967.63;4934678;28;46089;-72
2022/01/17 00:37:38;;;;;;;;;25.50;21.25;;;;;9.21;69.55;102940.13;4936371;28;45501;-71
2022/01/17 00:40:05;;;;;;;;;25.50;23.25;;;;;9.21;69.68;102926.81;4936096;28;45369;-73
2022/01/17 00:42:30;;;;;;;;;22.25;20.25;;;;;9.15;69.39;102924.63;4928010;28;45441;-71
2022/01/17 00:44:56;;;;;;;;;27.00;25.00;;;;;9.17;69.45;102917.69;4935410;28;45457;-71
2022/01/17 00:47:21;;;;;;;;;23.50;22.25;;;;;8.99;69.42;102881.75;4935319;28;45351;-71
2022/01/17 00:49:47;;;;;;;;;24.75;20.00;;;;;9.41;68.80;102954.81;4934635;28;45486;-71
2022/01/17 00:52:12;;;;;;;;;31.75;27.25;;;;;9.18;69.23;102908.84;4932248;28;45594;-71
2022/01/17 00:54:37;;;;;;;;;23.25;20.75;;;;;9.31;68.73;102928.34;4935293;28;46020;-72
2022/01/17 00:57:03;;;;;;;;;28.50;26.00;;;;;9.29;68.91;102933.56;4929037;28;45498;-73
2022/01/17 00:59:29;;;;;;;;;27.75;25.00;;;;;9.52;68.63;102955.50;4935875;28;45647;-72
2022/01/17 01:01:55;;;;;;;;;26.25;20.75;;;;;9.41;69.52;102939.72;4933564;28;45505;-72
2022/01/17 01:04:20;;;;;;;;;27.25;24.50;;;;;9.41;69.38;102945.03;4934708;28;46278;-73
2022/01/17 01:06:46;;;;;;;;;22.00;20.50;;;;;9.56;69.59;102957.56;4940516;28;45317;-71
2022/01/17 01:09:11;;;;;;;;;20.75;18.75;;;;;9.37;69.25;102921.66;4932818;28;45398;-72
2022/01/17 01:11:37;;;;;;;;;27.75;20.00;;;;;9.60;69.27;102956.94;4933109;28;45335;-71
2022/01/17 01:14:03;;;;;;;;;28.00;19.25;;;;;9.55;69.50;102948.66;4940798;28;44980;-72
2022/01/17 01:16:34;;;;;;;;;27.00;24.00;;;;;9.44;68.76;102931.00;4946875;28;45116;-72
2022/01/17 01:29:44;;;;;;;;;24.25;21.00;;;;;9.64;68.18;102950.06;4933927;28;44982;-72
2022/01/17 01:32:11;;;;;;;;;28.50;25.25;;;;;9.62;68.40;102949.97;4947155;28;45173;-72
2022/01/17 01:34:41;;;;;;;;;28.50;26.50;;;;;9.55;68.46;102950.38;4933820;28;46615;-71
2022/01/17 01:37:06;;;;;;;;;30.50;22.75;;;;;9.52;69.45;102950.16;4917019;28;45145;-72
2022/01/17 01:39:33;;;;;;;;;25.75;23.00;;;;;9.50;69.57;102952.75;4934036;28;45285;-72
2022/01/17 01:41:59;;;;;;;;;23.75;22.00;;;;;9.22;68.80;102891.28;4936920;28;45178;-71
2022/01/17 01:44:27;;;;;;;;;29.50;24.50;;;;;9.31;68.77;102909.66;4940070;28;45616;-71
2022/01/17 01:46:54;;;;;;;;;25.50;21.75;;;;;9.55;69.24;102956.66;4940169;28;45074;-70
2022/01/17 01:49:21;;;;;;;;;21.75;21.75;;;;;9.55;69.09;102961.03;4940660;28;45246;-71
2022/01/17 01:51:48;;;;;;;;;31.25;26.50;;;;;9.27;68.85;102916.50;4934740;28;45129;-70
2022/01/17 01:54:14;;;;;;;;;26.75;25.00;;;;;9.57;68.53;102963.00;4945915;28;45205;-72
2022/01/17 01:56:44;;;;;;;;;30.00;23.25;;;;;9.34;69.67;102932.13;4937531;28;45359;-70
2022/01/17 01:59:11;;;;;;;;;30.25;24.75;;;;;9.32;68.92;102938.16;4946861;28;45004;-71
2022/01/17 02:01:37;;;;;;;;;24.75;23.75;;;;;9.46;69.21;102964.03;4953368;28;45222;-71
2022/01/17 02:04:04;;;;;;;;;27.75;24.00;;;;;9.28;69.41;102934.38;4935699;28;46615;-72
2022/01/17 02:06:33;;;;;;;;;28.50;22.25;;;;;9.44;68.85;102965.69;4938505;28;45124;-71
2022/01/17 02:09:04;;;;;;;;;32.25;23.50;;;;;9.52;69.60;102977.78;4937194;28;45166;-71
2022/01/17 02:11:31;;;;;;;;;29.25;21.75;;;;;9.43;68.98;102957.56;4937589;28;45174;-71
2022/01/17 02:13:56;;;;;;;;;31.75;25.25;;;;;9.53;68.88;102971.59;4938207;28;45230;-71
2022/01/17 02:16:23;;;;;;;;;31.00;22.75;;;;;9.54;68.74;102977.91;4936877;28;45017;-72
2022/01/17 02:18:49;;;;;;;;;35.00;24.50;;;;;9.52;69.23;102977.78;4936452;28;45367;-72
2022/01/17 02:23:44;;;;;;;;;33.25;23.25;;;;;9.51;69.16;102981.28;4939546;28;45208;-70
2022/01/17 02:26:10;;;;;;;;;26.50;23.75;;;;;9.49;69.24;102960.66;4936851;28;45172;-72
2022/01/17 02:28:36;;;;;;;;;33.75;25.25;;;;;9.50;69.68;102950.09;4937678;28;45377;-72
2022/01/17 02:31:06;;;;;;;;;29.50;26.75;;;;;9.63;68.97;102966.91;4939892;28;45327;-72
2022/01/17 02:33:33;;;;;;;;;28.00;24.25;;;;;9.49;68.81;102940.22;4942945;28;44953;-71
2022/01/17 02:35:58;;;;;;;;;32.25;25.50;;;;;9.48;69.21;102935.69;4936393;28;44973;-71
2022/01/17 02:38:24;;;;;;;;;39.00;25.50;;;;;9.65;68.69;102966.19;4933679;28;45236;-71
2022/01/17 02:40:50;;;;;;;;;33.00;27.00;;;;;9.59;68.64;102947.09;4936778;28;45257;-71
2022/01/17 02:43:18;;;;;;;;;32.00;28.25;;;;;9.66;69.06;102959.09;4933391;28;45115;-71
2022/01/17 02:48:24;;;;;;;;;30.50;25.50;;;;;9.48;68.83;102930.34;4933482;28;45295;-71
2022/01/17 02:50:49;;;;;;;;;26.25;24.50;;;;;9.13;69.34;102861.38;4941311;28;44961;-72
2022/01/17 02:53:16;;;;;;;;;30.50;27.25;;;;;9.64;68.97;102950.06;4935243;28;46420;-72
2022/01/17 02:55:48;;;;;;;;;30.50;27.25;;;;;9.62;68.83;102951.69;4954881;28;45453;-72
2022/01/17 02:58:14;;;;;;;;;32.75;28.25;;;;;9.43;68.71;102921.13;4948651;28;45309;-71
2022/01/17 03:00:40;;;;;;;;;35.50;28.75;;;;;9.58;68.60;102959.50;4937729;28;45249;-72
2022/01/17 03:03:09;;;;;;;;;27.50;24.50;;;;;9.10;69.59;102883.41;4949919;28;46940;-73
2022/01/17 03:05:34;;;;;;;;;27.75;21.25;;;;;9.54;69.29;102967.22;4952444;28;45029;-72
2022/01/17 03:08:00;;;;;;;;;27.00;22.50;;;;;9.51;69.31;102967.94;4945163;28;45035;-71
2022/01/17 03:10:39;;;;;;;;;27.50;23.75;;;;;9.53;69.83;102971.59;4939194;28;45158;-71
2022/01/17 03:13:07;;;;;;;;;27.75;25.75;;;;;9.47;69.61;102952.56;4935041;28;45502;-72
2022/01/17 03:15:33;;;;;;;;;30.50;26.75;;;;;9.51;69.23;102975.00;4933118;28;45497;-71
2022/01/17 03:17:58;;;;;;;;;29.75;22.75;;;;;9.31;69.35;102939.91;4939880;28;44997;-70
2022/01/17 03:20:23;;;;;;;;;20.50;17.75;;;;;9.53;69.06;102976.03;4934736;28;45253;-72
2022/01/17 03:22:49;;;;;;;;;34.25;23.75;;;;;9.48;69.69;102966.81;4935779;28;45052;-71
2022/01/17 03:25:14;;;;;;;;;33.75;27.00;;;;;9.58;69.50;102985.25;4934101;28;45194;-72
2022/01/17 03:27:39;;;;;;;;;28.75;24.00;;;;;9.60;69.07;102980.94;4937198;28;45237;-73
2022/01/17 03:30:06;;;;;;;;;29.00;25.25;;;;;9.37;69.04;102963.41;4934332;28;45292;-70
2022/01/17 03:32:31;;;;;;;;;34.75;25.50;;;;;9.39;68.87;102965.38;4933534;28;45667;-72
2022/01/17 03:34:57;;;;;;;;;27.00;23.50;;;;;9.58;69.18;102986.19;4933879;28;45444;-71
2022/01/17 03:37:22;;;;;;;;;27.50;26.00;;;;;9.46;69.11;102968.47;4934211;28;45078;-73
2022/01/17 03:39:48;;;;;;;;;21.75;21.75;;;;;9.62;68.97;103007.72;4932751;28;45154;-71
2022/01/17 03:42:14;;;;;;;;;24.25;20.50;;;;;9.61;68.76;102996.16;4933499;28;45000;-71
2022/01/17 03:44:39;;;;;;;;;27.75;23.00;;;;;9.62;68.44;102992.66;4931606;28;45123;-71
2022/01/17 03:47:05;;;;;;;;;29.25;22.00;;;;;9.18;69.06;102922.16;4940534;28;45391;-71
2022/01/17 03:49:30;;;;;;;;;30.00;24.50;;;;;9.44;68.99;102959.41;4937519;28;45088;-71
2022/01/17 03:51:55;;;;;;;;;29.50;25.75;;;;;9.29;68.62;102957.56;4941309;28;46414;-71
2022/01/17 03:54:21;;;;;;;;;34.50;26.50;;;;;9.35;68.55;102965.97;4932658;28;45435;-70
2022/01/17 03:56:46;;;;;;;;;26.00;21.00;;;;;9.54;68.21;102994.81;4934733;28;45548;-71
2022/01/17 03:59:11;;;;;;;;;29.25;24.75;;;;;9.52;68.07;102999.13;4933686;28;45452;-71
2022/01/17 04:01:37;;;;;;;;;30.00;27.25;;;;;9.65;68.93;103029.31;4936284;28;46181;-72
2022/01/17 04:04:03;;;;;;;;;43.50;28.25;;;;;9.67;68.67;103019.63;4915802;28;45278;-71
2022/01/17 04:06:29;;;;;;;;;26.00;24.50;;;;;9.68;68.35;103021.50;4933384;28;45039;-71
2022/01/17 04:08:56;;;;;;;;;35.00;25.75;;;;;9.48;68.03;103004.16;4935307;28;45277;-71
2022/01/17 04:11:23;;;;;;;;;45.25;33.00;;;;;9.54;67.47;103024.16;4939635;28;46207;-71
2022/01/17 04:13:48;;;;;;;;;29.75;23.25;;;;;9.30;67.94;102994.09;4935073;28;45080;-71
2022/01/17 04:16:14;;;;;;;;;30.00;26.75;;;;;8.98;67.82;102944.81;4915780;28;45405;-71
2022/01/17 04:18:40;;;;;;;;;24.50;23.00;;;;;9.46;68.92;103037.84;4933636;28;45460;-71
2022/01/17 04:21:05;;;;;;;;;32.75;25.00;;;;;9.28;68.63;103009.06;4933351;28;45505;-71
2022/01/17 04:23:30;;;;;;;;;30.50;22.00;;;;;9.20;68.94;103010.28;4934615;28;45170;-71
2022/01/17 04:25:56;;;;;;;;;24.50;23.50;;;;;9.42;68.37;103047.38;4932822;28;45026;-72
2022/01/17 04:28:21;;;;;;;;;33.75;22.50;;;;;9.43;67.89;103045.63;4933520;28;44940;-72
2022/01/17 04:30:47;;;;;;;;;24.00;20.25;;;;;9.24;67.64;103009.69;4944673;28;45045;-71
2022/01/17 04:33:13;;;;;;;;;26.00;19.75;;;;;9.38;68.59;103023.97;4953066;28;45048;-72
2022/01/17 04:35:40;;;;;;;;;24.25;20.25;;;;;9.14;67.65;102959.19;4952824;28;45363;-72
2022/01/17 04:38:08;;;;;;;;;16.75;11.75;;;;;9.39;66.17;103002.72;4945401;28;44963;-71
2022/01/17 04:40:37;;;;;;;;;17.50;12.50;;;;;9.48;65.80;103010.41;4933920;28;45296;-71
2022/01/17 04:43:17;;;;;;;;;19.25;15.00;;;;;9.41;65.99;103001.06;4933717;28;45929;-72
2022/01/17 04:45:43;;;;;;;;;18.00;13.00;;;;;9.38;65.79;102998.19;4928928;28;45155;-71
2022/01/17 04:48:08;;;;;;;;;21.75;17.00;;;;;9.46;66.23;103017.41;4941118;28;44953;-72
2022/01/17 04:50:34;;;;;;;;;15.25;15.25;;;;;9.34;66.21;102992.56;4937804;28;46071;-71
2022/01/17 04:53:01;;;;;;;;;19.50;16.25;;;;;9.54;65.22;103032.19;4938345;28;45155;-71
2022/01/17 04:55:28;;;;;;;;;19.00;15.75;;;;;9.58;65.82;103033.31;4934735;28;45032;-71
2022/01/17 04:57:56;;;;;;;;;16.50;13.75;;;;;9.58;65.94;103035.97;4940946;28;45170;-71
2022/01/17 05:00:23;;;;;;;;;21.00;18.75;;;;;9.53;65.94;103026.75;4934577;28;45624;-72
2022/01/17 05:02:49;;;;;;;;;20.25;16.25;;;;;9.57;65.43;103027.06;4932714;28;45050;-71
2022/01/17 05:05:15;;;;;;;;;20.25;19.25;;;;;9.53;65.30;103008.97;4950837;28;45635;-72
2022/01/17 05:07:41;;;;;;;;;25.50;20.00;;;;;9.69;64.84;103032.28;4933576;28;45302;-73
2022/01/17 05:10:12;;;;;;;;;22.25;18.50;;;;;9.69;65.57;103031.38;4932954;28;45517;-72
2022/01/17 05:12:38;;;;;;;;;20.50;18.00;;;;;9.67;65.28;103039.28;4940919;28;45751;-71
2022/01/17 05:15:23;;;;;;;;;22.50;18.75;;;;;9.65;65.08;103040.91;4928230;28;45088;-72
2022/01/17 05:18:13;;;;;;;;;20.75;17.75;;;;;9.45;64.75;103017.28;4944379;28;45217;-72
2022/01/17 05:20:40;;;;;;;;;20.75;17.75;;;;;9.57;65.00;103053.75;4951785;28;45224;-72
2022/01/17 05:23:06;;;;;;;;;18.50;16.75;;;;;9.58;65.24;103049.31;4939285;28;44986;-72
2022/01/17 05:25:31;;;;;;;;;25.75;23.00;;;;;9.53;65.39;103062.34;4940973;28;44986;-72
2022/01/17 05:27:56;;;;;;;;;24.75;18.50;;;;;9.50;65.31;103053.22;4934882;28;44969;-72
2022/01/17 05:30:24;;;;;;;;;26.75;20.50;;;;;9.46;65.16;103052.09;4934318;28;45692;-73
2022/01/17 05:32:52;;;;;;;;;26.50;20.25;;;;;9.47;65.15;103047.66;4937132;28;45688;-72
2022/01/17 05:35:18;;;;;;;;;20.75;18.25;;;;;9.47;65.27;103048.59;4916647;28;45196;-72
2022/01/17 05:37:45;;;;;;;;;24.75;19.50;;;;;9.28;65.08;103021.50;4916677;28;45307;-71
2022/01/17 05:40:13;;;;;;;;;28.75;18.00;;;;;9.45;65.53;103051.97;4919201;28;46506;-72
2022/01/17 05:42:39;;;;;;;;;28.75;21.50;;;;;9.23;65.18;103031.84;4938690;28;44862;-71
2022/01/17 05:45:07;;;;;;;;;29.50;22.75;;;;;9.38;65.12;103059.56;4937859;28;45207;-71
2022/01/17 05:47:32;;;;;;;;;24.75;17.50;;;;;9.32;65.64;103072.50;4937421;28;45177;-72
2022/01/17 05:50:01;;;;;;;;;19.75;17.75;;;;;9.21;65.37;103058.41;4937229;28;45409;-72
2022/01/17 05:52:27;;;;;;;;;22.00;20.50;;;;;8.90;65.72;103012.69;4923164;28;45114;-71
2022/01/17 05:54:52;;;;;;;;;24.25;20.00;;;;;9.31;65.75;103078.63;4937812;28;45151;-71
2022/01/17 05:57:18;;;;;;;;;31.50;19.00;;;;;9.31;65.77;103091.97;4941708;28;44906;-71
2022/01/17 05:59:44;;;;;;;;;23.00;19.25;;;;;9.32;66.09;103082.22;4935682;28;45078;-71
2022/01/17 06:02:10;;;;;;;;;19.50;19.00;;;;;9.29;66.03;103074.00;4946618;28;45752;-71
2022/01/17 06:04:36;;;;;;;;;26.25;18.25;;;;;9.32;66.70;103075.16;4939583;28;44972;-72
2022/01/17 06:07:02;;;;;;;;;21.50;15.50;;;;;9.11;66.20;103025.69;4934736;28;45174;-73
2022/01/17 06:09:27;;;;;;;;;20.00;18.25;;;;;9.29;65.63;103055.31;4934142;28;47188;-71
2022/01/17 06:11:53;;;;;;;;;22.75;18.75;;;;;9.11;65.35;103041.69;4937382;28;45458;-71
2022/01/17 06:14:19;;;;;;;;;20.00;14.50;;;;;8.97;66.14;103025.63;4928888;28;45407;-72
2022/01/17 06:16:45;;;;;;;;;16.00;15.50;;;;;9.27;66.11;103075.66;4941689;28;45286;-70
2022/01/17 06:19:11;;;;;;;;;29.50;22.00;;;;;9.21;66.19;103077.06;4940127;28;45142;-71
2022/01/17 06:21:37;;;;;;;;;20.50;19.00;;;;;8.92;66.19;103028.78;4938901;28;45165;-71
2022/01/17 06:24:04;;;;;;;;;26.50;21.75;;;;;8.97;66.42;103033.63;4935346;28;44966;-71
2022/01/17 06:26:30;;;;;;;;;27.50;24.75;;;;;8.97;66.41;103036.28;4937463;28;45407;-71
2022/01/17 06:28:55;;;;;;;;;41.00;28.50;;;;;9.00;66.40;103046.25;4934465;28;46304;-71
2022/01/17 06:31:21;;;;;;;;;22.25;18.75;;;;;9.04;66.33;103067.91;4933699;28;45270;-71
2022/01/17 06:33:46;;;;;;;;;28.50;27.25;;;;;9.10;66.56;103095.81;4933203;28;45195;-71
2022/01/17 06:36:12;;;;;;;;;34.50;29.75;;;;;8.97;66.87;103073.59;4938992;28;45624;-71
2022/01/17 06:38:37;;;;;;;;;24.75;20.50;;;;;8.87;67.14;103057.78;4933680;28;45749;-70
2022/01/17 06:41:02;;;;;;;;;26.00;19.50;;;;;8.78;67.64;103050.06;4937130;28;45092;-71
2022/01/17 06:43:28;;;;;;;;;34.25;27.50;;;;;9.05;66.97;103106.16;4934731;28;45511;-71
2022/01/17 06:45:53;;;;;;;;;28.50;25.00;;;;;9.12;67.22;103127.09;4937355;28;45030;-72
2022/01/17 06:48:18;;;;;;;;;27.25;21.25;;;;;9.07;67.97;103127.59;4936644;28;45507;-72
2022/01/17 06:50:44;;;;;;;;;31.50;28.00;;;;;9.02;67.82;103125.53;4934508;28;45350;-72
2022/01/17 06:53:09;;;;;;;;;33.00;26.25;;;;;9.09;68.33;103134.91;4917857;28;45205;-72
2022/01/17 06:55:35;;;;;;;;;29.50;25.75;;;;;9.12;67.04;103131.50;4933999;28;45423;-71
2022/01/17 06:58:00;;;;;;;;;29.75;26.50;;;;;9.20;67.69;103130.31;4941222;28;45531;-72
2022/01/17 07:00:26;;;;;;;;;32.00;29.25;;;;;9.12;67.52;103135.09;4935933;28;44954;-72
2022/01/17 07:02:52;;;;;;;;;34.25;28.00;;;;;8.95;67.68;103091.25;4942709;28;44999;-72
2022/01/17 07:05:18;;;;;;;;;33.75;29.00;;;;;9.10;67.87;103109.16;4939901;28;45092;-71
2022/01/17 07:07:44;;;;;;;;;31.75;26.25;;;;;9.04;67.66;103107.91;4936387;28;45744;-72
2022/01/17 07:10:11;;;;;;;;;32.75;27.75;;;;;9.17;67.87;103135.44;4943209;28;45720;-70
2022/01/17 07:12:36;;;;;;;;;34.75;27.50;;;;;8.92;67.63;103107.03;4939429;28;45121;-70
2022/01/17 07:15:06;;;;;;;;;29.75;26.25;;;;;9.01;68.07;103134.34;4934018;28;45181;-70
2022/01/17 07:17:31;;;;;;;;;31.00;27.00;;;;;9.21;67.89;103175.75;4934310;28;45386;-72
2022/01/17 07:19:57;;;;;;;;;31.75;27.75;;;;;9.05;67.31;103159.50;4933473;28;45086;-71
2022/01/17 07:22:23;;;;;;;;;36.75;33.25;;;;;9.21;66.96;103207.78;4939043;28;45391;-72
2022/01/17 07:24:48;;;;;;;;;40.00;30.25;;;;;8.93;66.77;103159.53;4943670;28;45272;-71
2022/01/17 07:27:15;;;;;;;;;38.00;34.00;;;;;8.95;67.23;103181.91;4942415;28;45083;-69
2022/01/17 07:29:40;;;;;;;;;34.50;29.50;;;;;8.86;67.58;103149.25;4945499;28;45177;-70
2022/01/17 07:32:07;;;;;;;;;37.50;30.75;;;;;9.10;67.92;103175.81;4936850;28;45200;-70
2022/01/17 07:34:33;;;;;;;;;34.25;26.75;;;;;8.57;67.43;103085.84;4942415;28;45153;-72
2022/01/17 07:36:59;;;;;;;;;25.50;24.75;;;;;9.09;67.25;103168.63;4937083;28;46342;-71
2022/01/17 07:39:26;;;;;;;;;44.00;32.00;;;;;8.78;68.18;103122.03;4929168;28;45445;-70
2022/01/17 07:41:51;;;;;;;;;25.75;19.25;;;;;9.08;67.48;103166.78;4912704;28;45448;-70
2022/01/17 07:44:21;;;;;;;;;25.75;23.75;;;;;9.06;67.92;103163.06;4920856;28;45268;-73
2022/01/17 07:46:55;;;;;;;;;33.25;28.50;;;;;8.95;67.95;103160.56;4932577;28;45564;-71
2022/01/17 07:49:21;;;;;;;;;26.25;23.75;;;;;8.89;67.64;103154.78;4924624;28;45371;-71
2022/01/17 07:51:50;;;;;;;;;29.50;23.50;;;;;8.88;68.24;103158.28;4920182;28;45302;-71
2022/01/17 07:54:18;;;;;;;;;30.75;26.25;;;;;8.84;67.89;103166.88;4919673;28;45427;-71
2022/01/17 07:56:44;;;;;;;;;34.50;29.00;;;;;8.91;67.74;103193.16;4911418;28;47162;-70
2022/01/17 07:59:12;;;;;;;;;29.00;27.50;;;;;8.71;68.31;103170.41;4933596;28;45453;-71
2022/01/17 08:01:38;;;;;;;;;25.50;22.00;;;;;8.67;68.19;103176.31;4926274;28;45518;-69
2022/01/17 08:04:04;;;;;;;;;34.50;27.50;;;;;8.70;68.48;103173.88;4921633;28;45356;-69
2022/01/17 08:06:30;;;;;;;;;36.00;28.75;;;;;8.57;68.18;103166.72;4924156;28;46284;-69
2022/01/17 08:08:57;;;;;;;;;32.75;28.00;;;;;8.52;68.02;103161.88;4924224;28;45331;-70
2022/01/17 08:11:22;;;;;;;;;27.50;23.50;;;;;8.54;67.94;103182.47;4926103;28;45391;-71
2022/01/17 08:13:47;;;;;;;;;34.75;27.25;;;;;8.66;68.17;103199.38;4932424;28;46586;-70
2022/01/17 08:16:14;;;;;;;;;30.25;29.50;;;;;8.67;68.19;103198.53;4940654;28;45611;-69
2022/01/17 08:18:41;;;;;;;;;50.75;36.00;;;;;8.48;68.16;103158.97;4936373;28;45154;-70
2022/01/17 08:21:06;;;;;;;;;38.25;31.25;;;;;8.66;67.80;103191.38;4940223;28;45162;-70
2022/01/17 08:23:32;;;;;;;;;46.00;33.25;;;;;8.78;68.63;103214.41;4938894;28;45412;-70
2022/01/17 08:25:57;;;;;;;;;36.75;28.00;;;;;8.75;67.82;103215.09;4945613;28;45551;-70
2022/01/17 08:28:22;;;;;;;;;35.75;29.00;;;;;8.21;68.18;103122.25;4943076;28;45044;-75
2022/01/17 08:30:48;;;;;;;;;37.25;34.00;;;;;8.59;68.29;103190.81;4945736;28;45491;-69
2022/01/17 08:33:13;;;;;;;;;50.50;36.00;;;;;8.63;68.56;103184.91;4940669;28;45308;-73
2022/01/17 08:35:39;;;;;;;;;38.75;30.25;;;;;8.52;68.48;103152.13;4940283;28;45153;-70
2022/01/17 08:38:04;;;;;;;;;32.25;27.50;;;;;8.85;67.65;103211.38;4924966;28;45270;-72
2022/01/17 08:40:30;;;;;;;;;36.25;26.75;;;;;8.67;68.16;103186.97;4938037;28;45397;-71
2022/01/17 08:42:56;;;;;;;;;44.25;34.75;;;;;8.72;67.81;103197.97;4945390;28;45605;-71
2022/01/17 08:45:23;;;;;;;;;40.00;34.50;;;;;8.87;68.39;103232.81;4951268;28;45149;-73
2022/01/17 08:47:51;;;;;;;;;43.75;35.50;;;;;8.86;67.15;103231.91;4950282;28;45261;-72
2022/01/17 08:50:22;;;;;;;;;32.00;25.75;;;;;8.78;67.98;103223.34;4945428;28;45542;-70
2022/01/17 08:52:48;;;;;;;;;38.75;30.75;;;;;8.71;67.73;103212.09;4943672;28;45085;-71
2022/01/17 08:55:15;;;;;;;;;37.25;32.75;;;;;8.93;67.71;103242.19;4936657;28;45604;-71
2022/01/17 08:57:41;;;;;;;;;34.25;32.25;;;;;8.29;67.41;103116.69;4937366;28;45510;-71
2022/01/17 09:00:11;;;;;;;;;32.25;29.00;;;;;8.90;67.71;103207.31;4938597;28;45413;-70
2022/01/17 09:02:36;;;;;;;;;30.25;26.00;;;;;9.09;67.51;103216.63;4907195;28;45212;-71
2022/01/17 09:05:02;;;;;;;;;33.75;31.75;;;;;9.12;66.88;103222.19;4932090;28;46289;-71
2022/01/17 09:07:28;;;;;;;;;36.00;32.00;;;;;9.07;66.70;103210.25;4921881;28;45520;-70
2022/01/17 09:09:53;;;;;;;;;47.75;32.25;;;;;9.19;67.19;103232.50;4932736;28;45786;-71
2022/01/17 09:12:19;;;;;;;;;40.00;30.00;;;;;9.16;66.98;103219.84;4929138;28;45274;-71
2022/01/17 09:14:44;;;;;;;;;34.25;32.00;;;;;9.36;66.47;103237.28;4933526;28;45175;-69
2022/01/17 09:17:10;;;;;;;;;45.50;32.25;;;;;8.93;66.09;103185.28;4924332;28;45439;-70
2022/01/17 09:19:37;;;;;;;;;29.50;26.75;;;;;9.33;66.34;103245.06;4933230;28;45218;-70
2022/01/17 09:22:03;;;;;;;;;43.25;34.25;;;;;9.06;66.56;103208.41;4925016;28;45440;-72
2022/01/17 09:24:28;;;;;;;;;35.00;31.50;;;;;9.44;66.80;103263.56;4930845;28;46155;-72
2022/01/17 09:26:54;;;;;;;;;28.50;27.00;;;;;9.31;65.97;103257.38;4916452;28;45544;-72
2022/01/17 09:29:20;;;;;;;;;39.50;34.50;;;;;9.43;65.47;103284.00;4898305;28;45595;-71
2022/01/17 09:31:46;;;;;;;;;33.75;28.25;;;;;9.36;65.26;103293.31;4914960;28;45512;-73
2022/01/17 09:34:11;;;;;;;;;38.50;31.00;;;;;8.86;65.53;103221.25;4919181;28;45517;-73
2022/01/17 09:36:37;;;;;;;;;35.25;27.25;;;;;9.25;65.64;103291.59;4916417;28;45328;-72
2022/01/17 09:39:05;;;;;;;;;29.50;26.25;;;;;9.13;66.47;103285.38;4916802;28;45418;-74
2022/01/17 09:41:31;;;;;;;;;32.00;25.75;;;;;9.15;66.22;103299.75;4925083;28;46166;-74
2022/01/17 09:43:57;;;;;;;;;28.50;25.00;;;;;8.80;65.87;103219.03;4942278;28;45988;-73
2022/01/17 09:46:26;;;;;;;;;26.50;23.25;;;;;9.09;65.53;103248.63;4918660;28;45459;-73
2022/01/17 09:49:00;;;;;;;;;35.50;16.50;;;;;9.11;65.51;103241.69;4920727;28;46624;-74
2022/01/17 09:52:03;;;;;;;;;41.75;29.00;;;;;9.33;65.42;103270.81;4908353;28;46366;-73
2022/01/17 09:54:31;;;;;;;;;30.75;27.00;;;;;9.43;65.47;103284.00;4922365;28;45908;-72
2022/01/17 09:56:57;;;;;;;;;36.00;32.75;;;;;9.47;65.17;103294.09;4930927;28;45509;-70
2022/01/17 09:59:24;;;;;;;;;32.75;29.25;;;;;9.53;65.22;103304.28;4930577;28;45458;-73
2022/01/17 10:01:49;;;;;;;;;34.00;27.00;;;;;9.16;65.10;103233.19;4928949;28;45418;-73
2022/01/17 10:04:17;;;;;;;;;28.00;25.25;;;;;9.55;65.59;103299.97;4909690;28;47325;-73
2022/01/17 10:06:50;;;;;;;;;35.25;25.00;;;;;9.78;64.73;103330.97;4930485;28;45544;-74
2022/01/17 10:09:21;;;;;;;;;31.75;26.25;;;;;9.73;64.01;103327.06;4925388;28;45335;-74
2022/01/17 10:12:08;;;;;;;;;31.25;29.50;;;;;9.75;64.91;103330.75;4919087;28;45530;-74
2022/01/17 10:14:37;;;;;;;;;30.75;28.25;;;;;9.78;64.35;103330.97;4933257;28;46167;-72
2022/01/17 10:17:10;;;;;;;;;40.75;33.00;;;;;9.49;64.36;103275.53;4914641;28;45520;-74
2022/01/17 10:19:38;;;;;;;;;36.00;28.50;;;;;9.44;64.30;103285.88;4916161;28;45526;-72
2022/01/17 10:22:11;;;;;;;;;33.50;28.75;;;;;9.35;64.29;103258.50;4917657;28;45597;-73
2022/01/17 10:24:46;;;;;;;;;38.75;31.25;;;;;9.41;64.69;103256.28;4926730;28;45664;-74
2022/01/17 10:35:25;;;;;;;;;37.50;33.00;;;;;9.61;64.13;103292.41;4931621;28;45486;-75
2022/01/17 10:38:03;;;;;;;;;46.00;36.75;;;;;9.92;64.11;103337.31;4907948;28;45405;-73
2022/01/17 10:40:50;;;;;;;;;46.25;36.00;;;;;9.48;64.58;103252.31;4931639;28;45516;-74
2022/01/17 10:43:21;;;;;;;;;38.25;33.25;;;;;9.96;64.18;103352.72;4919216;28;45508;-73
2022/01/17 10:45:47;;;;;;;;;50.25;34.25;;;;;9.90;63.96;103352.28;4926285;28;46136;-76
2022/01/17 10:48:14;;;;;;;;;50.25;33.25;;;;;9.68;63.74;103305.34;4939884;28;45155;-75
2022/01/17 10:50:44;;;;;;;;;50.00;30.00;;;;;9.41;64.42;103273.22;4934404;28;45022;-74
2022/01/17 10:53:16;;;;;;;;;45.50;29.75;;;;;9.69;65.01;103319.66;4939980;28;45137;-75
2022/01/17 10:55:50;;;;;;;;;3.25;3.25;;;;;9.77;64.72;103332.72;4941731;28;45236;-75
2022/01/17 10:58:24;;;;;;;;;46.75;29.25;;;;;8.26;64.73;103059.63;4922916;28;46311;-75
2022/01/17 11:00:53;;;;;;;;;37.25;31.25;;;;;8.47;65.07;103061.19;4932334;28;45482;-75
2022/01/17 11:03:22;;;;;;;;;35.25;31.00;;;;;9.78;64.51;103289.19;4928107;28;45444;-75
2022/01/17 11:05:52;;;;;;;;;26.75;25.25;;;;;9.73;64.84;103282.63;4924375;28;45291;-75
2022/01/17 11:08:21;;;;;;;;;41.25;34.00;;;;;9.63;65.04;103248.06;4922657;28;45492;-75
2022/01/17 11:10:50;;;;;;;;;53.00;39.25;;;;;9.66;64.34;103261.63;4930775;28;45521;-74
2022/01/17 11:13:19;;;;;;;;;47.25;33.25;;;;;10.01;64.58;103299.63;4936163;28;45291;-76
2022/01/17 11:15:49;;;;;;;;;39.00;33.00;;;;;9.73;64.46;103276.31;4940401;28;46435;-76
2022/01/17 11:18:26;;;;;;;;;48.75;35.25;;;;;9.47;63.90;103205.09;4941977;28;45114;-76
2022/01/17 11:20:55;;;;;;;;;39.75;28.75;;;;;9.67;64.52;103241.19;4942581;28;45115;-76
2022/01/17 11:23:21;;;;;;;;;39.00;34.25;;;;;10.03;64.26;103304.28;4930085;28;45334;-77
2022/01/17 11:25:52;;;;;;;;;39.25;33.00;;;;;10.12;64.02;103301.31;4910722;28;47016;-76
2022/01/17 11:28:22;;;;;;;;;33.00;29.25;;;;;10.21;64.30;103295.66;4933671;28;45442;-75
2022/01/17 11:30:47;;;;;;;;;33.00;29.50;;;;;10.17;63.72;103275.84;4924325;28;45450;-73
2022/01/17 11:33:12;;;;;;;;;37.50;29.75;;;;;10.34;63.21;103293.03;4916714;28;45720;-77
2022/01/17 11:35:42;;;;;;;;;42.25;32.50;;;;;10.33;63.48;103284.13;4925036;28;45536;-74
2022/01/17 11:38:14;;;;;;;;;28.25;26.50;;;;;10.32;63.51;103279.56;4909774;28;45679;-74
2022/01/17 11:40:41;;;;;;;;;42.25;36.50;;;;;10.36;63.53;103275.38;4928295;28;45521;-76
2022/01/17 11:43:42;;;;;;;;;57.25;42.00;;;;;10.18;63.24;103239.34;4910054;28;45481;-72